Time;durP1;ratioP1;P1;durP2;ratioP2;P2;SDS_P1;SDS_P2;PMS_P1;PMS_P2;Temp;Humidity;BMP_temperature;BMP_pressure;BME280_temperature;BME280_humidity;BME280_pressure;Samples;Min_cycle;Max_cycle;Signal;HPM_P1;HPM_P2
2023/01/11 00:00:09;;;;;;;1.10;1.00;;;;;;;-141.97;86.52;47853.53;5004847;28;20190;-85
2023/01/11 00:02:34;;;;;;;1.07;0.90;;;;;;;-141.97;86.66;47834.31;5004135;28;20271;-84
2023/01/11 00:05:00;;;;;;;1.37;1.00;;;;;;;-141.97;86.61;47851.59;5013237;28;20448;-85
2023/01/11 00:07:25;;;;;;;1.20;1.10;;;;;;;-141.97;86.53;47876.59;5013415;28;20536;-83
2023/01/11 00:09:50;;;;;;;1.30;1.10;;;;;;;-141.97;86.69;47876.59;5012257;28;20174;-84
2023/01/11 00:12:16;;;;;;;1.03;0.93;;;;;;;-141.97;86.76;47809.31;5011751;28;20230;-84
2023/01/11 00:14:41;;;;;;;1.10;1.00;;;;;;;-141.97;86.86;47903.50;5011480;28;20159;-85
2023/01/11 00:17:07;;;;;;;1.33;1.17;;;;;;;-141.97;87.05;47857.38;5010531;28;20213;-85
2023/01/11 00:19:32;;;;;;;1.50;1.20;;;;;;;-141.97;86.73;47792.03;5013086;28;20249;-83
2023/01/11 00:21:58;;;;;;;1.20;1.10;;;;;;;-141.97;86.36;47899.66;5014207;28;20195;-83
2023/01/11 00:24:23;;;;;;;1.70;1.20;;;;;;;-141.97;86.43;47941.94;5013849;28;20173;-83
2023/01/11 00:26:48;;;;;;;1.30;1.20;;;;;;;-141.97;86.52;47772.78;5015252;28;20204;-84
2023/01/11 00:29:14;;;;;;;1.30;1.10;;;;;;;-141.97;86.45;47857.38;5015545;28;20183;-84
2023/01/11 00:31:39;;;;;;;1.50;1.40;;;;;;;-141.97;86.92;47845.84;5014018;28;20511;-84
2023/01/11 00:34:04;;;;;;;1.10;1.00;;;;;;;-141.97;86.42;47857.38;5015062;28;20520;-83
2023/01/11 00:36:30;;;;;;;1.27;1.17;;;;;;;-141.97;86.83;47772.78;5018046;28;20159;-84
2023/01/11 00:38:55;;;;;;;2.37;1.23;;;;;;;-141.97;86.58;47784.34;5019329;28;20166;-84
2023/01/11 00:49:34;;;;;;;1.30;1.10;;;;;;;-141.97;85.82;47815.09;5015572;28;20428;-84
2023/01/11 00:52:00;;;;;;;1.57;1.20;;;;;;;-141.97;85.69;47938.09;5014758;28;20485;-85
2023/01/11 00:54:26;;;;;;;1.63;1.20;;;;;;;-141.97;85.02;47803.56;5015932;28;20786;-84
2023/01/11 00:56:51;;;;;;;1.80;1.30;;;;;;;-141.97;84.33;47840.06;5017116;28;20202;-84
2023/01/11 00:59:17;;;;;;;2.37;1.00;;;;;;;-141.97;84.35;47886.22;5025223;28;20394;-87
2023/01/11 01:01:42;;;;;;;1.07;0.90;;;;;;;-141.97;84.23;47878.53;5022482;28;20165;-85
2023/01/11 01:04:07;;;;;;;1.40;1.07;;;;;;;-141.97;84.51;47718.97;5014831;28;20212;-83
2023/01/11 01:06:33;;;;;;;1.53;1.27;;;;;;;-141.97;84.78;47872.75;5013064;28;20163;-83
2023/01/11 01:08:59;;;;;;;2.00;1.30;;;;;;;-141.97;84.55;47876.59;5014281;28;20246;-84
2023/01/11 01:11:25;;;;;;;1.60;1.20;;;;;;;-141.97;84.70;47761.25;5013046;28;20555;-84
2023/01/11 01:16:35;;;;;;;1.10;0.97;;;;;;;-141.97;85.16;47826.63;5014529;28;20181;-83
2023/01/11 01:19:01;;;;;;;2.23;1.33;;;;;;;-141.97;85.74;47830.47;5012666;28;20413;-85
2023/01/11 01:21:26;;;;;;;1.40;1.10;;;;;;;-141.97;85.39;47815.09;5014018;28;20909;-84
2023/01/11 01:23:53;;;;;;;1.83;1.27;;;;;;;-141.97;85.28;47822.78;5012675;28;20620;-84
2023/01/11 01:26:19;;;;;;;1.47;1.00;;;;;;;-141.97;85.13;47718.97;5014099;28;20246;-84
2023/01/11 01:28:44;;;;;;;1.50;1.27;;;;;;;-141.97;84.85;47807.41;5013844;28;20882;-84
2023/01/11 01:31:09;;;;;;;2.27;1.40;;;;;;;-141.97;84.90;47828.53;5012364;28;20205;-86
2023/01/11 01:33:35;;;;;;;1.50;1.10;;;;;;;-141.97;84.68;47863.13;5014072;28;20175;-85
2023/01/11 01:36:02;;;;;;;2.10;1.30;;;;;;;-141.97;84.58;47817.00;5012352;28;20584;-83
2023/01/11 01:38:27;;;;;;;2.30;1.33;;;;;;;-141.97;84.55;47861.22;5012323;28;20167;-83
2023/01/11 01:40:53;;;;;;;1.33;1.10;;;;;;;-141.97;84.37;47747.81;5013504;28;20406;-84
2023/01/11 01:43:18;;;;;;;1.70;1.00;;;;;;;-141.97;83.54;47761.25;5013286;28;20191;-83
2023/01/11 01:45:44;;;;;;;1.73;1.20;;;;;;;-141.97;83.13;47782.41;5013260;28;20147;-85
2023/01/11 01:48:16;;;;;;;2.23;1.40;;;;;;;-141.97;83.23;47799.72;5013341;28;20173;-84
2023/01/11 01:50:47;;;;;;;2.03;1.30;;;;;;;-141.97;83.33;47932.34;5013088;28;20154;-84
2023/01/11 01:53:22;;;;;;;2.10;1.40;;;;;;;-141.97;83.42;47838.16;5011713;28;20868;-83
2023/01/11 01:55:52;;;;;;;2.17;1.30;;;;;;;-141.97;83.31;47824.69;5013030;28;20792;-83
2023/01/11 01:58:21;;;;;;;1.93;1.17;;;;;;;-141.97;83.66;47811.25;5013076;28;20406;-83
2023/01/11 02:00:46;;;;;;;2.30;1.50;;;;;;;-141.97;83.63;47834.31;5013083;28;20458;-83
2023/01/11 02:03:19;;;;;;;2.47;1.50;;;;;;;-141.97;83.85;47870.81;5013361;28;20449;-83
2023/01/11 02:05:46;;;;;;;2.30;1.50;;;;;;;-141.97;84.30;47768.94;5013913;28;20167;-84
2023/01/11 02:08:34;;;;;;;2.90;1.30;;;;;;;-141.97;84.42;47813.16;5012754;28;20694;-84
2023/01/11 02:11:02;;;;;;;3.07;1.80;;;;;;;-141.97;84.70;47861.22;5012883;28;20413;-83
2023/01/11 02:13:28;;;;;;;3.07;1.50;;;;;;;-141.97;84.53;47795.88;5012713;28;20525;-83
2023/01/11 02:16:06;;;;;;;2.93;1.90;;;;;;;-141.97;84.92;47882.38;5012732;28;20481;-83
2023/01/11 02:18:33;;;;;;;2.87;1.50;;;;;;;-141.97;85.05;47784.34;5012599;28;20221;-83
2023/01/11 02:21:18;;;;;;;2.80;1.30;;;;;;;-141.97;84.83;47851.59;5012877;28;20479;-83
2023/01/11 02:24:14;;;;;;;2.43;1.53;;;;;;;-141.97;84.84;47792.03;5011273;28;20985;-83
2023/01/11 02:27:18;;;;;;;2.07;1.30;;;;;;;-141.97;84.18;47830.47;5013147;28;20894;-83
2023/01/11 02:30:21;;;;;;;1.40;1.20;;;;;;;-141.97;84.18;47855.44;5017406;28;20437;-84
2023/01/11 02:32:55;;;;;;;1.80;1.30;;;;;;;-141.97;83.95;47845.84;5019513;28;20424;-83
2023/01/11 02:35:57;;;;;;;1.63;1.20;;;;;;;-141.97;83.99;47818.94;5012629;28;20397;-84
2023/01/11 02:38:44;;;;;;;1.87;1.40;;;;;;;-141.97;83.75;47842.00;5012816;28;20809;-84
2023/01/11 02:45:00;;;;;;;1.77;1.20;;;;;;;-141.97;83.79;47828.53;5012614;28;20444;-84
2023/01/11 02:47:17;;;;;;;1.93;1.60;;;;;;;-141.97;85.18;47884.28;5012866;28;20460;-84
2023/01/11 02:49:57;;;;;;;1.97;1.40;;;;;;;-141.97;85.26;47830.47;5011284;28;20480;-84
2023/01/11 02:52:35;;;;;;;2.17;1.50;;;;;;;-141.97;84.79;47834.31;5012265;28;20420;-83
2023/01/11 02:55:03;;;;;;;2.20;1.53;;;;;;;-141.97;84.90;47818.94;5012115;28;20465;-84
2023/01/11 02:57:31;;;;;;;2.50;1.73;;;;;;;-141.97;85.12;47845.84;5012263;28;20413;-84
2023/01/11 02:59:58;;;;;;;1.33;1.23;;;;;;;-141.97;84.66;47838.16;5012339;28;20529;-84
2023/01/11 03:02:24;;;;;;;2.27;1.23;;;;;;;-141.97;84.70;47818.94;5011020;28;20461;-84
2023/01/11 03:04:49;;;;;;;2.37;1.20;;;;;;;-141.97;84.00;47834.31;5012149;28;20409;-84
2023/01/11 03:07:42;;;;;;;2.20;1.30;;;;;;;-141.97;82.98;47842.00;5013279;28;20641;-85
2023/01/11 03:10:45;;;;;;;2.60;1.20;;;;;;;-141.97;82.36;47818.94;5010863;28;20656;-84
2023/01/11 03:13:32;;;;;;;2.60;1.10;;;;;;;-141.97;82.17;47809.31;5011936;28;20432;-84
2023/01/11 03:16:22;;;;;;;1.90;1.20;;;;;;;-141.97;82.24;47842.00;5011887;28;20413;-84
2023/01/11 03:18:47;;;;;;;1.13;1.00;;;;;;;-141.97;81.96;47828.53;5011984;28;20398;-84
2023/01/11 03:21:31;;;;;;;1.17;0.90;;;;;;;-141.97;81.21;47845.84;5012015;28;20406;-84
2023/01/11 03:24:04;;;;;;;1.20;1.10;;;;;;;-141.97;80.53;47813.16;5011751;28;20729;-84
2023/01/11 03:26:43;;;;;;;1.67;1.20;;;;;;;-141.97;80.62;47830.47;5010669;28;20508;-84
2023/01/11 03:29:08;;;;;;;0.87;0.80;;;;;;;-141.97;79.73;47830.47;5011800;28;20498;-84
2023/01/11 03:31:44;;;;;;;0.80;0.80;;;;;;;-141.97;79.40;47797.78;5011868;28;20501;-84
2023/01/11 03:34:28;;;;;;;0.90;0.80;;;;;;;-141.97;78.68;47847.75;5011953;28;20170;-84
2023/01/11 03:37:00;;;;;;;1.10;1.00;;;;;;;-141.97;78.13;47818.94;5011853;28;20409;-84
2023/01/11 03:40:07;;;;;;;0.93;0.73;;;;;;;-141.97;78.72;47888.13;5011519;28;20825;-84
2023/01/11 03:43:09;;;;;;;1.37;1.07;;;;;;;-141.97;79.01;47953.50;4954326;28;20491;-84
2023/01/11 03:45:21;;;;;;;1.00;0.90;;;;;;;-141.97;78.82;47797.78;4970602;28;20502;-84
2023/01/11 03:47:47;;;;;;;1.40;1.03;;;;;;;-141.97;78.74;47826.63;4970824;28;20466;-84
2023/01/11 03:50:12;;;;;;;1.57;1.10;;;;;;;-141.97;78.45;47916.97;4970645;28;20271;-84
2023/01/11 03:52:41;;;;;;;1.50;0.93;;;;;;;-141.97;78.05;47830.47;4970571;28;20218;-84
2023/01/11 03:55:11;;;;;;;1.80;1.10;;;;;;;-141.97;78.72;47830.47;4972675;28;20790;-84
2023/01/11 03:57:41;;;;;;;1.77;1.10;;;;;;;-141.97;80.29;47830.47;4974491;28;20415;-84
2023/01/11 04:00:08;;;;;;;3.13;1.20;;;;;;;-141.97;81.32;47830.47;4963857;28;20458;-84
2023/01/11 04:02:38;;;;;;;2.53;1.50;;;;;;;-141.97;81.69;47849.69;4985570;28;20486;-85
2023/01/11 04:05:04;;;;;;;2.80;1.47;;;;;;;-141.97;82.06;47830.47;4985724;28;20411;-85
2023/01/11 04:07:30;;;;;;;1.30;1.20;;;;;;;-141.97;81.95;47832.38;4960781;28;20446;-84
2023/01/11 04:09:57;;;;;;;1.33;1.20;;;;;;;-141.97;83.28;47749.72;4961237;28;20919;-84
2023/01/11 04:12:23;;;;;;;3.20;1.20;;;;;;;-141.97;84.30;47934.25;4979998;28;20180;-83
2023/01/11 04:14:48;;;;;;;1.67;1.23;;;;;;;-141.97;84.78;47842.00;4968563;28;20419;-85
2023/01/11 04:17:13;;;;;;;1.57;1.17;;;;;;;-141.97;85.28;47857.38;4981690;28;20176;-84
2023/01/11 04:19:39;;;;;;;2.43;1.57;;;;;;;-141.97;85.21;47828.53;4999198;28;20642;-84
2023/01/11 04:22:04;;;;;;;2.30;1.70;;;;;;;-141.97;85.19;47918.88;5015706;28;20198;-84
2023/01/11 04:24:29;;;;;;;1.97;1.60;;;;;;;-141.97;84.97;47753.56;5015171;28;20171;-84
2023/01/11 04:26:55;;;;;;;4.67;2.00;;;;;;;-141.97;85.48;47845.84;5015028;28;20162;-85
2023/01/11 04:29:20;;;;;;;2.00;1.30;;;;;;;-141.97;85.79;47872.75;5015733;28;20174;-86
2023/01/11 04:31:46;;;;;;;2.53;1.50;;;;;;;-141.97;85.79;47880.44;5020659;28;20526;-86
2023/01/11 04:34:11;;;;;;;2.27;1.63;;;;;;;-141.97;86.64;47826.63;5037891;28;20230;-85
2023/01/11 04:36:37;;;;;;;2.27;1.70;;;;;;;-141.97;86.75;47828.53;5035293;28;20198;-84
2023/01/11 04:39:03;;;;;;;3.43;1.97;;;;;;;-141.97;86.71;47938.09;5028192;28;20175;-85
2023/01/11 04:44:13;;;;;;;3.20;2.20;;;;;;;-141.97;86.83;47888.13;5020523;28;20421;-85
2023/01/11 04:46:38;;;;;;;3.43;2.10;;;;;;;-141.97;86.65;47840.06;5015510;28;20406;-85
2023/01/11 04:49:06;;;;;;;3.10;2.20;;;;;;;-141.97;86.98;47865.06;5015180;28;20174;-84
2023/01/11 04:51:32;;;;;;;3.50;1.90;;;;;;;-141.97;87.09;47922.72;5019310;28;20658;-87
2023/01/11 04:53:57;;;;;;;2.40;1.87;;;;;;;-141.97;86.98;47880.44;5020903;28;20473;-84
2023/01/11 04:56:22;;;;;;;2.93;1.73;;;;;;;-141.97;87.32;47740.13;5024488;28;20246;-86
2023/01/11 04:58:48;;;;;;;2.30;2.00;;;;;;;-141.97;88.05;47911.19;5025335;28;20162;-86
2023/01/11 05:01:16;;;;;;;2.90;1.80;;;;;;;-141.97;88.26;47924.66;5020263;28;20242;-85
2023/01/11 05:03:43;;;;;;;2.70;1.87;;;;;;;-141.97;89.05;47834.31;5019329;28;20277;-86
2023/01/11 05:06:08;;;;;;;3.30;1.90;;;;;;;-141.97;89.17;47863.13;5018896;28;20484;-87
2023/01/11 05:08:34;;;;;;;4.20;2.00;;;;;;;-141.97;89.13;47747.81;5014749;28;20457;-85
2023/01/11 05:11:02;;;;;;;3.00;2.00;;;;;;;-141.97;89.15;47868.91;5020139;28;20163;-84
2023/01/11 05:13:40;;;;;;;2.90;1.93;;;;;;;-141.97;88.85;47865.06;5017861;28;20162;-84
2023/01/11 05:16:16;;;;;;;4.23;2.17;;;;;;;-141.97;88.83;47799.72;5018933;28;20406;-86
2023/01/11 05:18:48;;;;;;;3.53;1.97;;;;;;;-141.97;88.28;47832.38;5015572;28;20413;-85
2023/01/11 05:21:16;;;;;;;5.73;2.50;;;;;;;-141.97;88.19;47828.53;5017384;28;20424;-85
2023/01/11 05:23:42;;;;;;;2.57;1.70;;;;;;;-141.97;87.53;47792.03;5014386;28;20548;-84
2023/01/11 05:26:16;;;;;;;3.13;2.10;;;;;;;-141.97;87.33;47865.06;5013653;28;20456;-85
2023/01/11 05:28:43;;;;;;;3.03;1.90;;;;;;;-141.97;87.26;47895.81;5034482;28;20170;-85
2023/01/11 05:31:08;;;;;;;3.93;2.10;;;;;;;-141.97;86.93;47845.84;5016280;28;20416;-85
2023/01/11 05:33:34;;;;;;;3.37;1.90;;;;;;;-141.97;86.82;47842.00;5016927;28;20413;-85
2023/01/11 05:36:06;;;;;;;2.90;1.90;;;;;;;-141.97;86.94;47868.91;5015964;28;20163;-86
2023/01/11 05:38:32;;;;;;;2.70;1.90;;;;;;;-141.97;86.13;47901.59;5020041;28;20189;-86
2023/01/11 05:41:00;;;;;;;3.40;2.00;;;;;;;-141.97;85.90;47853.53;5017467;28;20405;-85
2023/01/11 05:43:27;;;;;;;5.30;2.93;;;;;;;-141.97;85.91;47845.84;5016396;28;20481;-86
2023/01/11 05:45:55;;;;;;;3.43;1.87;;;;;;;-141.97;86.55;47911.19;5031098;28;20914;-84
2023/01/11 05:48:21;;;;;;;3.53;1.93;;;;;;;-141.97;86.40;47857.38;5013920;28;20410;-84
2023/01/11 05:50:54;;;;;;;3.03;1.60;;;;;;;-141.97;87.00;47897.75;5012465;28;20478;-84
2023/01/11 05:53:21;;;;;;;4.37;2.63;;;;;;;-141.97;87.08;47857.38;5013260;28;20234;-84
2023/01/11 05:55:57;;;;;;;4.70;2.60;;;;;;;-141.97;87.48;47761.25;5013805;28;20420;-84
2023/01/11 05:58:25;;;;;;;5.60;2.37;;;;;;;-141.97;87.74;47842.00;5013406;28;20420;-84
2023/01/11 06:00:54;;;;;;;4.23;2.47;;;;;;;-141.97;87.14;47876.59;5012102;28;20409;-85
2023/01/11 06:03:21;;;;;;;4.47;2.67;;;;;;;-141.97;86.83;47768.94;5014052;28;20449;-84
2023/01/11 06:05:46;;;;;;;6.40;3.03;;;;;;;-141.97;86.39;47849.69;5012429;28;20414;-84
2023/01/11 06:08:12;;;;;;;7.73;4.03;;;;;;;-141.97;86.70;47936.19;5013288;28;20940;-85
2023/01/11 06:10:38;;;;;;;11.17;4.90;;;;;;;-141.97;86.92;47822.78;5014316;28;20166;-85
2023/01/11 06:15:47;;;;;;;5.80;3.20;;;;;;;-141.97;86.67;47815.09;5015392;28;20408;-85
2023/01/11 06:18:13;;;;;;;6.77;2.93;;;;;;;-141.97;86.78;47824.69;5014475;28;20409;-86
2023/01/11 06:20:38;;;;;;;4.63;2.70;;;;;;;-141.97;85.96;47768.94;5016987;28;20221;-86
2023/01/11 06:23:07;;;;;;;4.03;2.47;;;;;;;-141.97;85.94;47770.88;5020691;28;20285;-86
2023/01/11 06:25:36;;;;;;;14.43;6.90;;;;;;;-141.97;85.88;47926.56;5003786;28;20170;-85
2023/01/11 06:28:03;;;;;;;7.27;3.43;;;;;;;-141.97;85.56;47859.28;5017775;28;21019;-86
2023/01/11 06:30:29;;;;;;;15.43;6.10;;;;;;;-141.97;85.58;47855.44;5032262;28;20513;-84
2023/01/11 06:32:54;;;;;;;7.37;4.43;;;;;;;-141.97;85.79;47840.06;5012064;28;20506;-84
2023/01/11 06:35:20;;;;;;;5.53;3.03;;;;;;;-141.97;85.68;47849.69;5014028;28;20198;-85
2023/01/11 06:37:46;;;;;;;7.23;4.73;;;;;;;-141.97;85.56;47820.84;5011930;28;20265;-84
2023/01/11 06:40:12;;;;;;;5.80;3.90;;;;;;;-141.97;85.18;47863.13;5011968;28;20877;-84
2023/01/11 06:42:37;;;;;;;6.47;3.57;;;;;;;-141.97;85.49;47865.06;5013462;28;20229;-85
2023/01/11 06:45:13;;;;;;;8.73;4.60;;;;;;;-141.97;85.69;47843.91;5006684;28;20189;-88
2023/01/11 06:47:54;;;;;;;8.80;4.93;;;;;;;-141.97;86.04;47834.31;5013038;28;20674;-85
2023/01/11 06:50:34;;;;;;;9.53;5.50;;;;;;;-141.97;86.58;47872.75;5011020;28;20503;-85
2023/01/11 06:53:03;;;;;;;11.93;5.37;;;;;;;-141.97;87.07;47703.59;4991666;28;20434;-85
2023/01/11 06:55:29;;;;;;;10.53;4.80;;;;;;;-141.97;87.00;47836.22;4992454;28;20819;-84
2023/01/11 06:57:55;;;;;;;14.33;8.00;;;;;;;-141.97;87.44;47876.59;5007697;28;20433;-85
2023/01/11 07:00:21;;;;;;;9.23;4.90;;;;;;;-141.97;87.01;47857.38;5008227;28;20441;-84
2023/01/11 07:02:47;;;;;;;6.60;3.97;;;;;;;-141.97;86.78;47861.22;5007302;28;20248;-84
2023/01/11 07:05:13;;;;;;;8.40;4.20;;;;;;;-141.97;86.38;47866.97;5008552;28;20432;-85
2023/01/11 07:07:40;;;;;;;9.93;4.90;;;;;;;-141.97;86.29;47734.34;5007031;28;20475;-85
2023/01/11 07:10:07;;;;;;;8.03;4.27;;;;;;;-141.97;86.10;47809.31;4991096;28;20552;-85
2023/01/11 07:12:33;;;;;;;9.47;4.77;;;;;;;-141.97;85.47;47880.44;5008073;28;20437;-85
2023/01/11 07:14:59;;;;;;;10.23;5.20;;;;;;;-141.97;85.35;47851.59;4990052;28;20499;-84
2023/01/11 07:17:24;;;;;;;9.77;5.27;;;;;;;-141.97;85.00;47778.56;5006458;28;20348;-85
2023/01/11 07:19:50;;;;;;;19.47;9.37;;;;;;;-141.97;84.46;47818.94;4988979;28;20225;-85
2023/01/11 07:22:15;;;;;;;12.23;6.27;;;;;;;-141.97;83.75;47943.88;4971700;28;20552;-85
2023/01/11 07:24:41;;;;;;;16.00;8.77;;;;;;;-141.97;83.29;47830.47;4969460;28;20237;-85
2023/01/11 07:27:06;;;;;;;16.70;8.07;;;;;;;-141.97;82.82;47809.31;4997728;28;20230;-84
2023/01/11 07:29:32;;;;;;;9.50;5.43;;;;;;;-141.97;82.29;47878.53;5009647;28;20666;-85
2023/01/11 07:31:57;;;;;;;14.53;6.40;;;;;;;-141.97;82.09;47842.00;5009251;28;20251;-85
2023/01/11 07:34:23;;;;;;;10.33;5.60;;;;;;;-141.97;81.76;47843.91;5009725;28;20195;-84
2023/01/11 07:36:48;;;;;;;10.63;5.23;;;;;;;-141.97;81.16;47765.09;5009233;28;20325;-83
2023/01/11 07:39:14;;;;;;;9.47;5.13;;;;;;;-141.97;81.36;47842.00;5009148;28;20191;-84
2023/01/11 07:44:23;;;;;;;9.60;5.03;;;;;;;-141.97;82.12;47834.31;5009334;28;20320;-85
2023/01/11 07:46:48;;;;;;;17.57;7.13;;;;;;;-141.97;81.59;47820.84;5006973;28;20453;-84
2023/01/11 07:49:13;;;;;;;16.20;5.83;;;;;;;-141.97;80.30;47826.63;5008766;28;20185;-85
2023/01/11 07:51:39;;;;;;;14.27;7.10;;;;;;;-141.97;79.75;47809.31;5009492;28;20178;-85
2023/01/11 07:54:05;;;;;;;13.60;6.73;;;;;;;-141.97;78.91;47728.59;5008289;28;20234;-85
2023/01/11 07:56:30;;;;;;;14.10;6.87;;;;;;;-141.97;79.34;47951.56;5008448;28;20182;-84
2023/01/11 07:58:56;;;;;;;76.37;27.77;;;;;;;-141.97;78.83;47938.09;5008993;28;20194;-85
2023/01/11 08:01:22;;;;;;;19.07;9.80;;;;;;;-141.97;78.77;47847.75;5008912;28;20194;-84
2023/01/11 08:03:48;;;;;;;18.63;9.70;;;;;;;-141.97;78.61;47838.16;5010067;28;20203;-84
2023/01/11 08:06:13;;;;;;;25.00;13.57;;;;;;;-141.97;78.13;47780.47;5009805;28;20189;-85
2023/01/11 08:08:40;;;;;;;16.67;8.43;;;;;;;-141.97;77.50;47845.84;5009224;28;20309;-85
2023/01/11 08:16:33;;;;;;;8.50;5.10;;;;;;;-141.97;74.67;47863.13;4998723;28;20737;-85
2023/01/11 08:18:59;;;;;;;5.00;3.40;;;;;;;-141.97;74.83;47861.22;5011018;28;20190;-84
2023/01/11 08:21:24;;;;;;;8.00;4.13;;;;;;;-141.97;73.07;47857.38;5009991;28;20225;-85
2023/01/11 08:23:55;;;;;;;6.17;3.33;;;;;;;-141.97;72.09;47813.16;5000403;28;20246;-84
2023/01/11 08:26:25;;;;;;;7.00;4.07;;;;;;;-141.97;71.04;47868.91;4999204;28;21221;-84
2023/01/11 08:28:50;;;;;;;4.30;2.90;;;;;;;-141.97;70.21;47851.59;5008718;28;20187;-84
2023/01/11 08:31:16;;;;;;;4.77;2.90;;;;;;;-141.97;71.42;47843.91;5010572;28;20277;-85
2023/01/11 08:33:41;;;;;;;4.83;2.90;;;;;;;-141.97;71.47;47868.91;5015392;28;20174;-85
2023/01/11 08:36:09;;;;;;;6.80;4.10;;;;;;;-141.97;71.24;47861.22;5019670;28;20175;-85
2023/01/11 08:38:35;;;;;;;28.13;14.00;;;;;;;-141.97;71.65;47832.38;5024906;28;20191;-85
2023/01/11 08:41:01;;;;;;;13.07;7.53;;;;;;;-141.97;70.70;47905.44;5032948;28;20185;-86
2023/01/11 08:43:30;;;;;;;11.20;5.90;;;;;;;-141.97;71.68;47803.56;5027550;28;20240;-84
2023/01/11 08:45:56;;;;;;;6.33;3.03;;;;;;;-141.97;71.62;47830.47;5015903;28;20264;-85
2023/01/11 08:48:21;;;;;;;7.90;5.07;;;;;;;-141.97;71.42;47868.91;5015914;28;20655;-85
2023/01/11 08:50:46;;;;;;;7.53;4.43;;;;;;;-141.97;71.71;47772.78;5017978;28;20242;-84
2023/01/11 08:53:12;;;;;;;14.17;6.87;;;;;;;-141.97;72.09;47838.16;5018681;28;20383;-84
2023/01/11 08:55:40;;;;;;;9.57;6.17;;;;;;;-141.97;71.45;47811.25;5022069;28;20190;-84
2023/01/11 08:58:06;;;;;;;12.00;7.23;;;;;;;-141.97;72.01;47747.81;5020916;28;20275;-84
2023/01/11 09:00:31;;;;;;;11.23;5.57;;;;;;;-141.97;71.48;47843.91;5015651;28;20186;-84
2023/01/11 09:03:01;;;;;;;15.87;8.33;;;;;;;-141.97;70.78;47801.63;5015268;28;20213;-85
2023/01/11 09:05:26;;;;;;;10.00;5.93;;;;;;;-141.97;70.59;47815.09;5013690;28;20224;-84
2023/01/11 09:07:55;;;;;;;12.13;8.97;;;;;;;-141.97;71.01;47849.69;5027281;28;20272;-85
2023/01/11 09:10:21;;;;;;;5.97;2.67;;;;;;;-141.97;69.50;47895.81;5013373;28;20189;-84
2023/01/11 09:12:46;;;;;;;3.77;2.47;;;;;;;-141.97;69.53;47834.31;5013790;28;20182;-84
2023/01/11 09:15:12;;;;;;;10.07;5.03;;;;;;;-141.97;69.98;47849.69;5012797;28;20265;-84
2023/01/11 09:17:37;;;;;;;11.90;5.70;;;;;;;-141.97;69.31;47807.41;5012618;28;20171;-84
2023/01/11 09:20:03;;;;;;;13.73;6.37;;;;;;;-141.97;69.00;47863.13;5015584;28;20232;-84
2023/01/11 09:22:28;;;;;;;9.57;3.70;;;;;;;-141.97;69.78;47813.16;5012360;28;20635;-85
2023/01/11 09:24:57;;;;;;;6.77;3.70;;;;;;;-141.97;69.91;47849.69;5003828;28;20258;-84
2023/01/11 09:27:23;;;;;;;9.43;4.67;;;;;;;-141.97;69.63;47834.31;5004012;28;20235;-84
2023/01/11 09:29:48;;;;;;;3.80;2.23;;;;;;;-141.97;68.86;47822.78;5015329;28;20201;-85
2023/01/11 09:32:14;;;;;;;9.53;4.30;;;;;;;-141.97;68.79;47855.44;5013272;28;20685;-84
2023/01/11 09:34:41;;;;;;;7.60;4.00;;;;;;;-141.97;67.99;47849.69;5013318;28;20237;-85
2023/01/11 09:37:07;;;;;;;6.17;3.43;;;;;;;-141.97;67.36;47832.38;5013156;28;20221;-84
2023/01/11 09:39:33;;;;;;;3.93;2.60;;;;;;;-141.97;68.36;47803.56;5012094;28;20182;-84
2023/01/11 09:42:34;;;;;;;2.37;2.00;;;;;;;-141.97;68.17;47813.16;5012131;28;20194;-85
2023/01/11 09:45:13;;;;;;;3.27;2.30;;;;;;;-141.97;67.86;47870.81;5011492;28;20701;-84
2023/01/11 09:48:06;;;;;;;4.23;2.53;;;;;;;-141.97;67.55;47822.78;5011376;28;20190;-84
2023/01/11 09:50:40;;;;;;;5.43;3.43;;;;;;;-141.97;68.16;47861.22;5011133;28;20277;-84
2023/01/11 09:53:12;;;;;;;5.20;2.97;;;;;;;-141.97;68.88;47830.47;5010139;28;20569;-84
2023/01/11 09:55:49;;;;;;;3.93;3.03;;;;;;;-141.97;68.85;47842.00;5011678;28;20254;-84
2023/01/11 09:58:17;;;;;;;6.50;3.97;;;;;;;-141.97;68.32;47865.06;5010730;28;20190;-84
2023/01/11 10:00:54;;;;;;;6.40;4.50;;;;;;;-141.97;68.62;47872.75;5009074;28;20186;-85
2023/01/11 10:03:42;;;;;;;4.37;2.63;;;;;;;-141.97;69.50;47838.16;5011075;28;20246;-85
2023/01/11 10:06:17;;;;;;;5.10;3.57;;;;;;;-141.97;69.63;47876.59;5010451;28;20190;-84
2023/01/11 10:09:04;;;;;;;6.97;4.13;;;;;;;-141.97;69.29;47830.47;5010080;28;20265;-84
2023/01/11 10:11:40;;;;;;;5.80;3.93;;;;;;;-141.97;69.69;47857.38;5012030;28;20224;-85
2023/01/11 10:14:37;;;;;;;5.73;3.50;;;;;;;-141.97;69.69;47899.66;5013779;28;20215;-85
2023/01/11 10:17:46;;;;;;;5.53;2.80;;;;;;;-141.97;69.18;47818.94;5010911;28;20179;-84
2023/01/11 10:20:11;;;;;;;4.00;2.80;;;;;;;-141.97;68.73;47843.91;4960376;28;20286;-84
2023/01/11 10:22:43;;;;;;;4.87;2.73;;;;;;;-141.97;69.22;47840.06;4969536;28;20294;-84
2023/01/11 10:25:13;;;;;;;7.17;3.60;;;;;;;-141.97;69.21;47876.59;4961793;28;20370;-84
2023/01/11 10:27:48;;;;;;;21.03;11.07;;;;;;;-141.97;69.71;47840.06;4950130;28;20286;-84
2023/01/11 10:39:38;;;;;;;12.07;7.13;;;;;;;-141.97;69.34;47851.59;4927606;29;20319;-84
2023/01/11 10:42:14;;;;;;;20.97;9.73;;;;;;;-141.97;68.17;47880.44;4930207;29;20189;-84
2023/01/11 10:44:48;;;;;;;9.77;5.13;;;;;;;-141.97;67.89;47932.34;4929674;29;20665;-84
2023/01/11 10:47:20;;;;;;;7.70;4.63;;;;;;;-141.97;68.31;47815.09;4931374;29;20192;-84
2023/01/11 10:50:13;;;;;;;6.07;3.37;;;;;;;-141.97;68.66;47832.38;4930720;29;20623;-83
2023/01/11 10:52:50;;;;;;;9.03;5.67;;;;;;;-141.97;68.21;47811.25;4931458;29;20185;-83
2023/01/11 10:55:27;;;;;;;15.40;8.27;;;;;;;-141.97;66.79;47959.25;4897260;29;20260;-84
2023/01/11 10:57:58;;;;;;;7.80;5.40;;;;;;;-141.97;65.29;47920.81;4933546;29;20220;-84
2023/01/11 11:00:37;;;;;;;10.43;7.07;;;;;;;-141.97;65.97;47761.25;4933444;29;20196;-85
2023/01/11 11:03:23;;;;;;;11.60;6.97;;;;;;;-141.97;64.56;47861.22;4951054;28;20359;-85
2023/01/11 11:05:59;;;;;;;12.07;7.60;;;;;;;-141.97;63.92;47870.81;4949378;29;20192;-85
2023/01/11 11:08:45;;;;;;;7.53;5.90;;;;;;;-141.97;63.62;47834.31;4948243;29;20188;-85
2023/01/11 11:11:20;;;;;;;17.37;9.23;;;;;;;-141.97;65.70;47857.38;4970626;28;20278;-84
2023/01/11 11:14:01;;;;;;;10.70;6.50;;;;;;;-141.97;65.81;47830.47;4970177;28;20683;-84
2023/01/11 11:17:02;;;;;;;13.83;7.83;;;;;;;-141.97;65.56;47857.38;4970771;28;20206;-84
2023/01/11 11:19:31;;;;;;;10.70;6.10;;;;;;;-141.97;66.74;47863.13;4929505;29;20223;-84
2023/01/11 11:21:57;;;;;;;7.00;3.90;;;;;;;-141.97;66.26;47842.00;4929945;29;20288;-84
2023/01/11 11:24:41;;;;;;;5.27;4.47;;;;;;;-141.97;66.34;47857.38;4921217;29;21032;-84
2023/01/11 11:27:32;;;;;;;4.50;2.90;;;;;;;-141.97;65.75;47842.00;4930021;29;20185;-84
2023/01/11 11:29:58;;;;;;;5.50;3.00;;;;;;;-141.97;65.64;47834.31;4929416;29;20275;-84
2023/01/11 11:32:34;;;;;;;14.53;7.67;;;;;;;-141.97;65.89;47878.53;4934073;29;20317;-84
2023/01/11 11:34:59;;;;;;;9.17;5.07;;;;;;;-141.97;66.22;47891.97;4933891;29;20325;-84
2023/01/11 11:37:30;;;;;;;13.23;6.73;;;;;;;-141.97;66.65;47868.91;4931000;29;20197;-85
2023/01/11 11:39:56;;;;;;;8.87;4.83;;;;;;;-141.97;67.29;47820.84;4931250;29;20666;-85
2023/01/11 11:42:23;;;;;;;14.00;8.23;;;;;;;-141.97;66.49;47824.69;4914076;29;20197;-85
2023/01/11 11:45:10;;;;;;;17.07;10.33;;;;;;;-141.97;65.63;47845.84;4929005;29;20200;-85
2023/01/11 11:47:36;;;;;;;13.63;8.90;;;;;;;-141.97;65.96;47847.75;4929480;29;20189;-85
2023/01/11 11:50:23;;;;;;;18.60;9.87;;;;;;;-141.97;65.78;47884.28;4928450;29;20197;-85
2023/01/11 11:53:03;;;;;;;16.23;8.37;;;;;;;-141.97;65.90;47838.16;4927104;29;20608;-85
2023/01/11 11:55:34;;;;;;;17.13;11.57;;;;;;;-141.97;65.98;47872.75;4955360;28;20198;-85
2023/01/11 11:58:05;;;;;;;10.20;6.27;;;;;;;-141.97;64.75;47843.91;4968204;28;20669;-85
2023/01/11 12:00:44;;;;;;;6.40;4.10;;;;;;;-141.97;65.26;47840.06;4976294;28;20196;-84
2023/01/11 12:03:20;;;;;;;6.80;3.80;;;;;;;-141.97;65.92;47828.53;4957854;28;20199;-85
2023/01/11 12:06:06;;;;;;;6.50;3.93;;;;;;;-141.97;65.52;47749.72;4968973;28;20183;-85